Time;durP1;ratioP1;P1;durP2;ratioP2;P2;SDS_P1;SDS_P2;PMS_P1;PMS_P2;Temp;Humidity;BMP_temperature;BMP_pressure;BME280_temperature;BME280_humidity;BME280_pressure;Samples;Min_cycle;Max_cycle;Signal;HPM_P1;HPM_P2
2022/06/29 00:00:27;;;;;;;10.97;9.33;;;25.50;99.90;;;;;;4989718;28;20238;-70
2022/06/29 00:02:55;;;;;;;9.80;7.87;;;25.50;99.90;;;;;;4990504;28;20201;-70
2022/06/29 00:05:24;;;;;;;10.47;8.40;;;25.50;99.90;;;;;;4991816;28;20213;-70
2022/06/29 00:07:52;;;;;;;9.10;8.10;;;25.40;99.90;;;;;;4992961;28;20302;-69
2022/06/29 00:10:20;;;;;;;12.23;9.57;;;25.40;99.90;;;;;;5005999;28;20203;-68
2022/06/29 00:12:48;;;;;;;13.03;10.10;;;25.40;99.90;;;;;;4991767;28;20323;-71
2022/06/29 00:15:17;;;;;;;10.50;9.40;;;25.40;99.90;;;;;;4991347;28;20723;-70
2022/06/29 00:17:44;;;;;;;10.37;9.27;;;25.40;99.90;;;;;;4988168;28;20282;-70
2022/06/29 00:20:13;;;;;;;12.03;8.87;;;25.40;99.90;;;;;;4983881;28;20248;-68
2022/06/29 00:22:41;;;;;;;12.40;8.83;;;25.40;99.90;;;;;;4991065;28;20214;-68
2022/06/29 00:25:09;;;;;;;9.93;8.97;;;25.40;99.90;;;;;;4991169;28;20289;-70
2022/06/29 00:27:37;;;;;;;9.63;8.70;;;25.40;99.90;;;;;;4990443;28;20261;-68
2022/06/29 00:30:06;;;;;;;10.60;9.50;;;25.40;99.90;;;;;;4991094;28;20302;-69
2022/06/29 00:32:33;;;;;;;12.13;9.00;;;25.40;99.90;;;;;;4991273;28;20885;-69
2022/06/29 00:35:01;;;;;;;9.93;8.93;;;25.40;99.90;;;;;;4991008;28;20214;-70
2022/06/29 00:37:28;;;;;;;9.13;8.17;;;25.40;99.90;;;;;;4982736;28;20235;-72
2022/06/29 00:39:55;;;;;;;10.73;8.93;;;25.40;99.90;;;;;;4971323;28;20297;-70
2022/06/29 00:42:23;;;;;;;10.20;8.33;;;25.40;99.90;;;;;;4971393;28;20671;-69
2022/06/29 00:44:50;;;;;;;9.93;8.93;;;25.30;99.90;;;;;;4971214;28;20670;-69
2022/06/29 00:47:18;;;;;;;9.70;8.70;;;25.30;99.90;;;;;;4974400;28;20216;-70
2022/06/29 00:49:45;;;;;;;10.60;9.07;;;25.30;99.90;;;;;;4971184;28;20300;-69
2022/06/29 00:52:13;;;;;;;10.80;8.90;;;25.30;99.90;;;;;;4970595;28;20332;-69
2022/06/29 00:54:42;;;;;;;11.27;8.93;;;25.20;99.90;;;;;;4971378;28;20644;-71
2022/06/29 00:57:15;;;;;;;11.23;8.80;;;25.20;99.90;;;;;;4974511;28;20559;-70
2022/06/29 00:59:44;;;;;;;10.17;8.70;;;25.20;99.90;;;;;;4971210;28;20281;-69
2022/06/29 01:02:13;;;;;;;12.20;9.53;;;25.10;99.90;;;;;;4975178;28;20226;-70
2022/06/29 01:04:42;;;;;;;12.00;9.67;;;24.90;99.90;;;;;;4986637;28;20326;-70
2022/06/29 01:07:09;;;;;;;12.33;9.27;;;24.90;99.90;;;;;;4981849;28;20289;-70
2022/06/29 01:09:36;;;;;;;11.30;8.90;;;24.80;99.90;;;;;;4979714;28;20213;-71
2022/06/29 01:12:04;;;;;;;10.73;9.63;;;24.70;99.90;;;;;;4989756;28;20322;-71
2022/06/29 01:14:31;;;;;;;12.67;10.00;;;24.70;99.90;;;;;;4990592;28;20249;-71
2022/06/29 01:16:58;;;;;;;10.53;9.27;;;24.60;99.90;;;;;;4989410;28;20298;-70
2022/06/29 01:19:25;;;;;;;13.63;10.43;;;24.50;99.90;;;;;;4990246;28;20295;-69
2022/06/29 01:21:56;;;;;;;13.63;10.80;;;24.50;99.90;;;;;;4989300;28;20204;-69
2022/06/29 01:24:24;;;;;;;13.00;11.60;;;24.50;99.90;;;;;;4990425;28;20239;-69
2022/06/29 01:26:51;;;;;;;15.40;12.07;;;24.40;99.90;;;;;;4989192;28;20210;-69
2022/06/29 01:29:18;;;;;;;14.50;11.30;;;24.40;99.90;;;;;;4988786;28;20581;-69
2022/06/29 01:31:46;;;;;;;13.83;11.80;;;24.30;99.90;;;;;;4986720;28;20293;-69
2022/06/29 01:34:12;;;;;;;15.47;12.07;;;24.40;99.90;;;;;;4982741;28;20211;-70
2022/06/29 01:36:39;;;;;;;15.47;11.77;;;24.40;99.90;;;;;;4990226;28;20734;-69
2022/06/29 01:39:06;;;;;;;14.30;11.67;;;24.30;99.90;;;;;;4989864;28;20301;-69
2022/06/29 01:41:34;;;;;;;15.73;12.70;;;24.30;99.90;;;;;;4989315;28;20305;-71
2022/06/29 01:44:01;;;;;;;14.17;11.70;;;24.20;99.90;;;;;;4988834;28;20219;-69
2022/06/29 01:46:28;;;;;;;14.70;12.30;;;24.20;99.90;;;;;;4989697;28;20207;-69
2022/06/29 01:48:55;;;;;;;14.60;12.00;;;24.20;99.90;;;;;;4989749;28;20631;-69
2022/06/29 01:51:22;;;;;;;17.80;12.33;;;24.10;99.90;;;;;;4973422;28;20245;-69
2022/06/29 01:53:49;;;;;;;15.13;12.73;;;24.00;99.90;;;;;;4978998;28;20221;-70
2022/06/29 01:56:16;;;;;;;15.00;11.37;;;23.90;99.90;;;;;;4989893;28;20629;-69
2022/06/29 01:58:45;;;;;;;14.60;11.33;;;23.90;99.90;;;;;;4989167;28;20210;-69
2022/06/29 02:01:12;;;;;;;17.10;13.30;;;23.90;99.90;;;;;;4989801;28;20303;-70
2022/06/29 02:03:39;;;;;;;16.83;12.50;;;23.80;99.90;;;;;;4988671;28;20294;-69
2022/06/29 02:06:06;;;;;;;14.87;12.50;;;23.60;99.90;;;;;;4989407;28;20213;-70
2022/06/29 02:08:33;;;;;;;18.60;14.30;;;23.60;99.90;;;;;;4989948;28;20637;-72
2022/06/29 02:11:01;;;;;;;21.47;15.43;;;23.50;99.90;;;;;;4989161;28;20614;-70
2022/06/29 02:13:28;;;;;;;20.53;14.60;;;23.50;99.90;;;;;;4989309;28;20272;-70
2022/06/29 02:15:57;;;;;;;20.30;14.93;;;23.50;99.90;;;;;;4989676;28;20322;-70
2022/06/29 02:18:24;;;;;;;18.97;14.13;;;23.50;99.90;;;;;;4989812;28;20297;-71
2022/06/29 02:20:51;;;;;;;22.93;16.07;;;23.50;99.90;;;;;;4989074;28;20261;-71
2022/06/29 02:23:18;;;;;;;20.77;14.83;;;23.50;99.90;;;;;;4988816;28;20268;-71
2022/06/29 02:25:45;;;;;;;21.93;16.40;;;23.50;99.90;;;;;;4989198;28;20212;-70
2022/06/29 02:28:12;;;;;;;18.70;14.90;;;23.40;99.90;;;;;;4989828;28;20214;-70
2022/06/29 02:36:09;;;;;;;19.63;13.33;;;23.40;99.90;;;;;;4984912;28;20346;-70
2022/06/29 02:38:36;;;;;;;19.33;13.13;;;23.40;99.90;;;;;;4989136;28;20294;-72
2022/06/29 02:41:03;;;;;;;17.33;13.47;;;23.40;99.90;;;;;;4987074;28;20293;-73
2022/06/29 02:43:30;;;;;;;17.03;13.47;;;23.30;99.90;;;;;;4991056;28;20203;-71
2022/06/29 02:45:57;;;;;;;17.37;13.77;;;23.40;99.90;;;;;;4972559;28;20246;-69
2022/06/29 02:48:25;;;;;;;14.67;12.90;;;23.40;99.90;;;;;;4973065;28;20213;-69
2022/06/29 02:50:52;;;;;;;17.80;13.23;;;23.40;99.90;;;;;;4981346;28;20213;-69
2022/06/29 02:53:19;;;;;;;16.37;13.60;;;23.40;99.90;;;;;;4991828;28;20325;-69
2022/06/29 02:55:46;;;;;;;15.43;12.97;;;23.50;99.90;;;;;;4991300;28;20300;-70
2022/06/29 02:58:13;;;;;;;16.40;11.73;;;23.50;99.90;;;;;;4992209;28;20643;-68
2022/06/29 03:00:40;;;;;;;15.90;12.93;;;23.50;99.90;;;;;;4991219;28;20307;-68
2022/06/29 03:03:07;;;;;;;13.27;11.27;;;23.60;99.90;;;;;;4991930;28;20205;-71
2022/06/29 03:05:35;;;;;;;13.13;11.20;;;23.60;99.90;;;;;;4990813;28;20639;-68
2022/06/29 03:08:02;;;;;;;11.90;10.60;;;23.80;99.90;;;;;;4992134;28;20300;-68
2022/06/29 03:10:29;;;;;;;12.40;10.97;;;23.80;99.90;;;;;;5006642;28;20211;-69
2022/06/29 03:12:56;;;;;;;12.10;10.73;;;23.90;99.90;;;;;;5049353;28;20216;-70
2022/06/29 03:15:25;;;;;;;12.67;10.87;;;24.00;99.90;;;;;;4990993;28;20300;-69
2022/06/29 03:17:52;;;;;;;15.07;12.33;;;24.10;99.90;;;;;;4991801;28;20576;-69
2022/06/29 03:20:19;;;;;;;16.33;13.43;;;24.20;99.90;;;;;;5000760;28;20236;-68
2022/06/29 03:22:48;;;;;;;13.93;12.43;;;24.30;99.90;;;;;;5060639;28;20297;-69
2022/06/29 03:25:15;;;;;;;15.17;11.40;;;24.40;99.90;;;;;;5027709;28;20217;-68
2022/06/29 03:27:42;;;;;;;13.90;11.33;;;24.40;99.90;;;;;;5033677;28;20201;-67
2022/06/29 03:30:10;;;;;;;13.77;11.90;;;24.50;99.90;;;;;;5034908;28;20217;-69
2022/06/29 03:32:37;;;;;;;13.80;11.80;;;24.60;99.90;;;;;;5045176;28;20693;-69
2022/06/29 03:35:06;;;;;;;13.10;11.70;;;24.70;99.90;;;;;;5019245;28;20204;-70
2022/06/29 03:37:33;;;;;;;15.27;12.27;;;24.70;99.90;;;;;;5051407;28;20289;-70
2022/06/29 03:40:02;;;;;;;13.57;11.97;;;24.80;99.90;;;;;;5009000;28;20274;-68
2022/06/29 03:42:29;;;;;;;14.53;12.27;;;24.90;99.90;;;;;;5035997;28;20288;-68
2022/06/29 03:44:56;;;;;;;14.33;12.23;;;25.00;99.90;;;;;;5064977;28;20224;-69
2022/06/29 03:47:25;;;;;;;13.23;10.40;;;25.10;99.90;;;;;;5087876;28;20216;-69
2022/06/29 03:49:52;;;;;;;16.00;11.60;;;25.20;99.90;;;;;;5019044;28;20730;-69
2022/06/29 03:52:19;;;;;;;13.40;11.40;;;25.30;99.90;;;;;;4990515;28;20245;-68
2022/06/29 03:54:46;;;;;;;12.40;10.77;;;25.40;99.90;;;;;;4990468;28;20257;-70
2022/06/29 03:57:14;;;;;;;12.80;11.50;;;25.50;99.90;;;;;;4991474;28;20314;-71
2022/06/29 03:59:41;;;;;;;15.00;10.98;;;25.60;99.90;;;;;;4989799;28;20240;-69
2022/06/29 04:02:08;;;;;;;13.68;11.73;;;25.70;99.90;;;;;;4980001;28;20206;-69
2022/06/29 04:04:35;;;;;;;14.40;11.13;;;25.90;99.90;;;;;;4990095;28;20206;-69
2022/06/29 04:07:02;;;;;;;16.10;10.83;;;26.00;99.90;;;;;;4991281;28;20298;-69
2022/06/29 04:09:29;;;;;;;14.15;11.18;;;26.20;99.90;;;;;;4990962;28;20634;-69
2022/06/29 04:11:56;;;;;;;12.77;10.02;;;26.30;99.90;;;;;;4991170;28;20578;-70
2022/06/29 04:14:26;;;;;;;12.98;9.88;;;26.50;99.90;;;;;;4988016;28;20228;-68
2022/06/29 04:16:54;;;;;;;12.75;9.80;;;26.60;99.90;;;;;;4986233;28;20200;-71
2022/06/29 04:19:21;;;;;;;10.48;9.38;;;26.80;99.90;;;;;;4990810;28;20576;-70
2022/06/29 04:21:49;;;;;;;10.52;8.95;;;26.90;99.90;;;;;;4990761;28;20248;-68
2022/06/29 04:24:16;;;;;;;11.45;8.90;;;27.10;99.90;;;;;;4974150;28;20284;-69
2022/06/29 04:26:43;;;;;;;9.80;8.80;;;27.20;99.90;;;;;;4971017;28;20301;-70
2022/06/29 04:29:10;;;;;;;10.13;8.75;;;27.40;99.90;;;;;;4979643;28;20714;-68
2022/06/29 04:31:38;;;;;;;10.30;8.30;;;27.50;99.90;;;;;;4990563;28;20721;-69
2022/06/29 04:34:06;;;;;;;10.43;9.32;;;27.60;99.90;;;;;;4990154;28;20226;-68
2022/06/29 04:36:32;;;;;;;19.77;10.43;;;27.70;99.90;;;;;;4990445;28;20674;-69
2022/06/29 04:38:59;;;;;;;11.35;9.82;;;27.80;99.90;;;;;;4990500;28;20707;-69
2022/06/29 04:41:26;;;;;;;11.13;8.55;;;27.90;99.90;;;;;;4990456;28;20301;-71
2022/06/29 04:43:53;;;;;;;11.02;9.43;;;27.90;99.90;;;;;;4989892;28;20299;-69
2022/06/29 04:46:20;;;;;;;11.02;8.32;;;27.90;99.90;;;;;;4989552;28;20409;-72
2022/06/29 04:48:51;;;;;;;10.63;8.50;;;27.90;99.90;;;;;;4987557;28;20343;-69
2022/06/29 04:51:18;;;;;;;11.45;9.30;;;27.90;99.90;;;;;;4970947;28;20261;-71
2022/06/29 04:53:46;;;;;;;16.05;9.52;;;27.90;99.90;;;;;;4971018;28;20246;-70
2022/06/29 04:56:13;;;;;;;11.15;9.27;;;27.90;99.90;;;;;;4990459;28;20216;-72
2022/06/29 04:58:40;;;;;;;22.13;9.73;;;27.90;99.90;;;;;;4990705;28;20754;-70
2022/06/29 05:01:07;;;;;;;15.75;9.02;;;27.90;99.90;;;;;;4986897;28;20721;-68
2022/06/29 05:03:34;;;;;;;15.20;9.27;;;28.00;99.90;;;;;;4989267;28;20259;-71
2022/06/29 05:06:03;;;;;;;14.05;10.02;;;28.00;99.90;;;;;;4989138;28;20296;-70
2022/06/29 05:08:30;;;;;;;12.68;9.77;;;28.00;99.90;;;;;;4990135;28;20224;-72
2022/06/29 05:10:57;;;;;;;13.23;10.23;;;28.00;99.90;;;;;;4990967;28;20300;-75
2022/06/29 05:13:24;;;;;;;13.40;10.70;;;28.00;99.90;;;;;;4989979;28;20276;-72
2022/06/29 05:15:51;;;;;;;17.55;12.57;;;28.00;99.90;;;;;;4988321;28;20295;-70
2022/06/29 05:18:18;;;;;;;20.27;14.80;;;28.00;99.90;;;;;;4978487;28;20201;-71
2022/06/29 05:20:45;;;;;;;21.42;14.50;;;28.00;99.90;;;;;;4989926;28;20214;-71
2022/06/29 05:23:14;;;;;;;22.83;15.40;;;28.00;99.90;;;;;;4989843;28;20205;-71
2022/06/29 05:25:41;;;;;;;22.60;14.85;;;28.00;99.90;;;;;;4984035;28;20271;-71
2022/06/29 05:28:08;;;;;;;19.88;14.15;;;28.10;99.90;;;;;;4989684;28;20209;-70
2022/06/29 05:30:36;;;;;;;20.30;12.55;;;28.10;99.90;;;;;;4989448;28;20217;-70
2022/06/29 05:33:02;;;;;;;15.43;12.27;;;28.20;99.90;;;;;;4989751;28;20337;-70
2022/06/29 05:35:33;;;;;;;17.33;12.50;;;28.30;99.90;;;;;;4987761;28;20300;-69
2022/06/29 05:38:01;;;;;;;14.50;12.85;;;28.40;99.90;;;;;;4970610;28;20283;-72
2022/06/29 05:40:30;;;;;;;14.25;10.43;;;28.40;99.90;;;;;;4969989;28;20207;-71
2022/06/29 05:42:58;;;;;;;10.25;9.23;;;28.50;99.90;;;;;;4987200;28;20242;-70
2022/06/29 05:45:25;;;;;;;11.25;9.30;;;28.60;99.90;;;;;;4981032;28;20413;-69
2022/06/29 05:47:52;;;;;;;12.23;9.48;;;28.60;99.90;;;;;;4982022;28;20211;-70
2022/06/29 05:50:19;;;;;;;14.10;10.52;;;28.70;99.90;;;;;;4989504;28;20203;-70
2022/06/29 05:52:46;;;;;;;9.77;8.77;;;28.70;99.90;;;;;;4989237;28;20235;-70
2022/06/29 05:55:13;;;;;;;12.50;9.70;;;28.70;99.90;;;;;;4988825;28;20317;-71
2022/06/29 05:57:42;;;;;;;11.55;9.00;;;28.70;99.90;;;;;;4987845;28;20307;-72
2022/06/29 06:00:11;;;;;;;11.48;9.20;;;28.70;99.90;;;;;;4987392;28;20716;-70
2022/06/29 06:02:38;;;;;;;10.82;9.48;;;28.70;99.90;;;;;;4989332;28;20584;-71
2022/06/29 06:05:05;;;;;;;14.10;8.77;;;28.70;99.90;;;;;;4992792;28;20679;-69
2022/06/29 06:07:32;;;;;;;11.32;9.00;;;28.80;99.90;;;;;;4988638;28;20216;-69
2022/06/29 06:09:59;;;;;;;14.90;9.77;;;28.90;99.90;;;;;;4981515;28;20605;-70
2022/06/29 06:12:28;;;;;;;13.55;9.70;;;29.00;99.90;;;;;;4987732;28;20317;-70
2022/06/29 06:14:58;;;;;;;23.92;13.30;;;29.00;99.90;;;;;;4989329;28;20234;-71
2022/06/29 06:17:26;;;;;;;11.40;9.57;;;29.00;99.90;;;;;;4991848;28;20727;-68
2022/06/29 06:19:53;;;;;;;25.75;10.50;;;29.10;99.90;;;;;;4974532;28;20686;-69
2022/06/29 06:22:20;;;;;;;19.42;10.85;;;29.20;99.90;;;;;;4973147;28;20294;-70
2022/06/29 06:24:47;;;;;;;14.13;8.93;;;29.20;99.90;;;;;;4973341;28;20657;-69
2022/06/29 06:27:13;;;;;;;10.63;8.98;;;29.10;99.90;;;;;;4973264;28;20726;-69
2022/06/29 06:29:40;;;;;;;11.60;9.55;;;29.10;99.90;;;;;;4991543;28;20238;-71
2022/06/29 06:32:09;;;;;;;11.20;9.77;;;29.10;99.90;;;;;;4999651;28;20222;-71
2022/06/29 06:34:36;;;;;;;11.65;9.40;;;29.00;99.90;;;;;;5048384;28;20226;-71
2022/06/29 06:37:03;;;;;;;13.00;9.20;;;29.00;99.90;;;;;;4991997;28;20210;-70
2022/06/29 06:39:30;;;;;;;10.75;9.27;;;29.00;99.90;;;;;;4992573;28;20212;-69
2022/06/29 06:41:56;;;;;;;11.93;9.15;;;29.00;99.90;;;;;;4992088;28;20659;-71
2022/06/29 06:44:23;;;;;;;14.13;9.52;;;29.00;99.90;;;;;;4991141;28;20244;-69
2022/06/29 06:46:50;;;;;;;11.48;9.40;;;29.10;99.90;;;;;;4992449;28;20203;-70
2022/06/29 06:49:22;;;;;;;11.48;9.18;;;29.20;99.90;;;;;;4991985;28;20203;-70
2022/06/29 06:51:49;;;;;;;11.95;9.80;;;29.30;99.90;;;;;;4991745;28;20241;-72
2022/06/29 06:54:16;;;;;;;10.93;9.20;;;29.30;99.90;;;;;;4990344;28;20743;-69
2022/06/29 06:56:43;;;;;;;10.07;9.00;;;29.30;99.90;;;;;;4991661;28;20901;-69
2022/06/29 06:59:10;;;;;;;17.67;10.00;;;29.40;99.90;;;;;;4976326;28;20828;-69
2022/06/29 07:01:37;;;;;;;12.50;9.35;;;29.50;99.90;;;;;;4991410;28;20309;-73
2022/06/29 07:04:05;;;;;;;11.77;10.57;;;29.50;99.90;;;;;;5002607;28;20574;-72
2022/06/29 07:06:33;;;;;;;12.40;10.75;;;29.60;99.90;;;;;;5013295;28;20307;-70
2022/06/29 07:09:00;;;;;;;11.82;9.70;;;29.60;99.90;;;;;;4989277;28;20215;-70
2022/06/29 07:11:27;;;;;;;12.15;10.50;;;29.70;99.90;;;;;;4979989;28;20204;-70
2022/06/29 07:13:53;;;;;;;16.17;9.95;;;29.70;99.90;;;;;;4980861;28;20621;-71
2022/06/29 07:16:20;;;;;;;9.90;8.90;;;29.70;99.90;;;;;;4978600;28;20398;-71
2022/06/29 07:18:48;;;;;;;10.38;9.15;;;29.80;99.90;;;;;;5005394;28;20292;-70
2022/06/29 07:21:15;;;;;;;10.68;9.68;;;29.80;99.90;;;;;;5039854;28;20245;-70
2022/06/29 07:23:43;;;;;;;10.90;9.85;;;29.90;99.90;;;;;;5037139;28;20315;-68
2022/06/29 07:26:10;;;;;;;10.75;9.73;;;29.80;99.90;;;;;;5034057;28;20286;-68
2022/06/29 07:28:39;;;;;;;11.93;9.18;;;29.80;99.90;;;;;;5037506;28;20567;-71
2022/06/29 07:31:06;;;;;;;10.48;9.40;;;29.90;99.90;;;;;;5035062;28;20207;-70
2022/06/29 07:33:33;;;;;;;21.73;10.30;;;29.90;99.90;;;;;;5020931;28;20310;-73
2022/06/29 07:36:00;;;;;;;11.63;10.13;;;30.00;99.90;;;;;;5041805;28;20256;-71
2022/06/29 07:38:27;;;;;;;16.10;9.90;;;30.10;99.90;;;;;;5034380;28;20634;-71
2022/06/29 07:40:58;;;;;;;9.95;8.80;;;30.20;99.90;;;;;;5036760;28;20612;-70
2022/06/29 07:43:25;;;;;;;12.02;9.82;;;30.20;99.90;;;;;;5042892;28;20587;-74
2022/06/29 07:45:52;;;;;;;11.52;9.13;;;30.20;99.90;;;;;;5031230;28;20192;-72
2022/06/29 07:48:19;;;;;;;11.50;9.25;;;30.30;99.90;;;;;;5043387;28;20278;-71
2022/06/29 07:50:46;;;;;;;20.55;9.77;;;30.40;99.90;;;;;;5025463;28;20214;-73
2022/06/29 07:53:13;;;;;;;11.35;9.15;;;30.40;99.90;;;;;;4982437;28;20346;-70
2022/06/29 07:55:40;;;;;;;10.50;9.45;;;30.40;99.90;;;;;;4980473;28;20326;-71
2022/06/29 07:58:08;;;;;;;10.60;9.50;;;30.40;99.90;;;;;;4972271;28;20235;-72
2022/06/29 08:00:36;;;;;;;11.10;8.70;;;30.40;99.90;;;;;;4982773;28;20215;-70
2022/06/29 08:03:03;;;;;;;11.68;9.38;;;30.40;99.90;;;;;;4989378;28;20203;-72
2022/06/29 08:05:30;;;;;;;11.93;9.00;;;30.50;99.90;;;;;;4988651;28;20207;-70
2022/06/29 08:07:57;;;;;;;10.68;9.57;;;30.60;99.90;;;;;;4979290;28;20203;-71
2022/06/29 08:10:24;;;;;;;9.98;8.55;;;30.60;99.90;;;;;;4986588;28;20246;-72
2022/06/29 08:12:51;;;;;;;15.43;9.70;;;30.60;99.90;;;;;;4981341;28;20207;-69
2022/06/29 08:15:20;;;;;;;13.90;9.18;;;30.80;99.90;;;;;;4992929;28;20796;-71
2022/06/29 08:17:48;;;;;;;9.27;8.35;;;30.80;99.90;;;;;;4987923;28;20298;-71
2022/06/29 08:20:15;;;;;;;10.95;9.07;;;30.90;99.90;;;;;;4996444;28;20340;-70
2022/06/29 08:22:42;;;;;;;9.82;8.32;;;30.90;99.90;;;;;;5002071;28;20724;-70
2022/06/29 08:25:10;;;;;;;9.02;8.13;;;31.00;99.90;;;;;;4971034;28;20290;-72
2022/06/29 08:27:37;;;;;;;10.27;8.40;;;31.10;99.90;;;;;;4976465;28;20200;-70
2022/06/29 08:30:06;;;;;;;10.02;9.02;;;31.10;99.90;;;;;;4989688;28;20720;-71
2022/06/29 08:32:34;;;;;;;14.18;9.23;;;31.10;99.90;;;;;;4985548;28;20213;-71
2022/06/29 08:35:02;;;;;;;11.90;8.98;;;31.10;99.90;;;;;;4985248;28;20223;-70
2022/06/29 08:37:29;;;;;;;14.68;9.05;;;31.10;99.90;;;;;;4977970;28;20646;-70
2022/06/29 08:39:56;;;;;;;13.02;9.07;;;31.10;99.90;;;;;;4987270;28;20203;-73
2022/06/29 08:42:24;;;;;;;11.07;9.68;;;31.10;99.90;;;;;;4986607;28;20733;-71
2022/06/29 08:44:52;;;;;;;13.27;9.05;;;31.00;99.90;;;;;;4990296;28;20252;-71
2022/06/29 08:47:19;;;;;;;12.02;8.90;;;31.00;99.90;;;;;;4990614;28;20692;-70
2022/06/29 08:49:47;;;;;;;10.95;8.50;;;31.10;99.90;;;;;;4986431;28;20218;-70
2022/06/29 08:52:16;;;;;;;9.85;8.20;;;31.10;99.70;;;;;;4980425;28;20243;-70
2022/06/29 08:54:46;;;;;;;9.98;8.20;;;31.20;99.40;;;;;;4988401;28;20738;-70
2022/06/29 08:57:13;;;;;;;10.23;8.45;;;31.20;99.30;;;;;;4988337;28;20250;-70
2022/06/29 08:59:41;;;;;;;8.82;7.93;;;31.30;98.80;;;;;;4987375;28;22348;-72
2022/06/29 09:02:08;;;;;;;29.20;9.25;;;31.40;99.40;;;;;;4992065;28;20653;-71
2022/06/29 09:04:34;;;;;;;10.68;8.10;;;31.30;99.10;;;;;;4989997;28;20264;-74
2022/06/29 09:07:03;;;;;;;16.67;7.85;;;31.40;97.40;;;;;;5042588;28;20248;-76
2022/06/29 09:09:30;;;;;;;10.80;8.00;;;31.40;97.30;;;;;;5000504;28;20255;-73
2022/06/29 09:11:57;;;;;;;22.25;8.18;;;31.40;97.90;;;;;;5008030;28;20239;-67
2022/06/29 09:14:27;;;;;;;10.27;8.30;;;31.40;97.90;;;;;;4989865;28;20223;-69
2022/06/29 09:17:01;;;;;;;23.48;8.85;;;31.40;96.30;;;;;;4990379;28;20218;-69
2022/06/29 09:19:30;;;;;;;19.13;8.20;;;31.40;95.70;;;;;;4989880;28;20198;-69
2022/06/29 09:21:59;;;;;;;11.27;9.18;;;31.40;96.50;;;;;;4988935;28;20203;-68
2022/06/29 09:24:30;;;;;;;14.45;8.63;;;31.40;96.40;;;;;;5021307;28;20200;-67
2022/06/29 09:26:59;;;;;;;11.50;8.43;;;31.50;96.40;;;;;;5027134;28;20310;-70
2022/06/29 09:29:29;;;;;;;10.27;7.63;;;31.50;96.20;;;;;;4989326;28;20306;-69
2022/06/29 09:32:25;;;;;;;9.65;8.05;;;31.50;95.70;;;;;;4989573;28;20196;-71
2022/06/29 09:34:53;;;;;;;8.45;7.55;;;31.70;96.30;;;;;;4959905;28;20701;-70
2022/06/29 09:37:21;;;;;;;10.60;8.10;;;31.70;96.10;;;;;;4989965;28;20207;-71
2022/06/29 09:39:51;;;;;;;9.75;8.60;;;31.80;96.10;;;;;;4989424;28;20668;-70
2022/06/29 09:42:20;;;;;;;33.85;9.52;;;31.90;96.30;;;;;;4982967;28;20196;-67
2022/06/29 09:44:48;;;;;;;11.77;8.90;;;32.00;96.30;;;;;;5003437;28;20226;-66
2022/06/29 09:47:16;;;;;;;9.10;8.20;;;31.90;95.60;;;;;;5031024;28;20318;-68
2022/06/29 09:49:44;;;;;;;10.48;8.55;;;31.90;95.30;;;;;;4994162;28;20296;-69
2022/06/29 09:52:12;;;;;;;18.10;8.65;;;31.90;94.90;;;;;;4978588;28;20239;-70
2022/06/29 09:54:44;;;;;;;9.98;7.35;;;31.80;95.60;;;;;;4987285;28;20631;-70
2022/06/29 09:57:13;;;;;;;9.45;8.40;;;31.90;95.50;;;;;;4990404;28;20238;-71
2022/06/29 10:02:39;;;;;;;9.35;8.13;;;32.00;95.00;;;;;;5002131;28;20198;-68
2022/06/29 10:05:08;;;;;;;9.20;7.65;;;32.10;95.10;;;;;;4989111;28;20219;-67
2022/06/29 10:07:37;;;;;;;8.57;7.78;;;32.10;94.70;;;;;;4991177;28;20214;-67
2022/06/29 10:10:07;;;;;;;9.48;8.57;;;32.10;94.70;;;;;;5009758;28;20285;-70
2022/06/29 10:15:46;;;;;;;8.75;7.85;;;32.20;95.20;;;;;;5008556;28;20614;-72
2022/06/29 10:18:22;;;;;;;8.90;8.00;;;32.30;95.20;;;;;;4969653;28;20279;-70
2022/06/29 10:20:49;;;;;;;9.43;8.13;;;32.30;95.10;;;;;;4989171;28;20632;-73
2022/06/29 10:23:44;;;;;;;9.02;8.07;;;32.40;94.80;;;;;;4989895;28;20218;-71
2022/06/29 10:26:46;;;;;;;10.02;9.02;;;32.40;94.60;;;;;;4984588;28;20223;-73
2022/06/29 10:29:33;;;;;;;11.32;9.38;;;32.40;93.80;;;;;;4986557;28;20203;-72
2022/06/29 10:32:12;;;;;;;10.90;8.48;;;32.30;93.60;;;;;;4988999;28;20258;-75
2022/06/29 10:35:06;;;;;;;9.63;8.20;;;32.30;93.60;;;;;;4988810;28;20215;-73
2022/06/29 10:37:30;;;;;;;8.98;8.10;;;32.30;93.50;;;;;;4989401;28;20214;-72
2022/06/29 10:40:00;;;;;;;9.10;8.20;;;32.30;93.50;;;;;;4988829;28;20208;-73
2022/06/29 10:45:47;;;;;;;9.40;8.00;;;32.40;92.70;;;;;;4988933;28;20661;-74
2022/06/29 10:48:23;;;;;;;9.57;7.72;;;32.50;93.20;;;;;;4978324;28;20201;-73
2022/06/29 10:50:50;;;;;;;8.80;7.80;;;32.60;93.40;;;;;;4969668;28;20202;-72
2022/06/29 10:53:19;;;;;;;13.27;8.10;;;32.80;93.00;;;;;;4969413;28;20301;-71
2022/06/29 10:55:49;;;;;;;8.07;7.22;;;33.00;92.90;;;;;;4969476;28;20641;-72
2022/06/29 10:58:17;;;;;;;8.27;7.53;;;33.10;92.20;;;;;;4994676;28;20298;-73
2022/06/29 11:00:46;;;;;;;7.60;6.90;;;33.20;92.60;;;;;;5035528;28;20200;-73
2022/06/29 11:03:15;;;;;;;8.15;7.35;;;33.30;92.10;;;;;;5034414;28;20206;-72
2022/06/29 11:13:59;;;;;;;8.73;7.88;;;33.80;92.00;;;;;;4983019;28;20237;-75
2022/06/29 11:16:35;;;;;;;9.75;8.02;;;33.80;91.70;;;;;;4990443;28;20227;-74
2022/06/29 11:19:02;;;;;;;8.55;7.75;;;33.60;92.00;;;;;;4991965;28;20286;-73
2022/06/29 11:21:29;;;;;;;8.73;7.45;;;33.50;91.70;;;;;;4991420;28;20300;-74
2022/06/29 11:24:05;;;;;;;8.27;7.30;;;33.50;91.20;;;;;;4992064;28;20641;-73
2022/06/29 11:26:33;;;;;;;10.85;7.68;;;33.40;91.20;;;;;;4991220;28;20278;-75
2022/06/29 11:29:01;;;;;;;9.25;8.35;;;33.30;91.50;;;;;;4991634;28;20203;-76
2022/06/29 11:31:28;;;;;;;9.23;8.05;;;33.10;92.60;;;;;;4991311;28;20314;-76
2022/06/29 11:33:57;;;;;;;11.07;8.40;;;33.10;92.90;;;;;;4981451;28;20748;-74
2022/06/29 11:36:26;;;;;;;10.57;8.35;;;33.10;92.60;;;;;;4991606;28;20234;-75
2022/06/29 11:38:55;;;;;;;10.23;8.32;;;33.20;92.20;;;;;;4991754;28;20250;-72
2022/06/29 11:41:25;;;;;;;9.50;8.52;;;33.20;92.40;;;;;;4991075;28;20211;-73
2022/06/29 11:44:04;;;;;;;8.18;7.38;;;33.30;92.40;;;;;;4991763;28;20280;-74
2022/06/29 11:46:35;;;;;;;9.30;8.40;;;33.40;92.50;;;;;;4990445;28;20290;-74
2022/06/29 11:51:49;;;;;;;9.93;7.88;;;33.60;91.30;;;;;;4991338;28;20238;-77
2022/06/29 11:54:16;;;;;;;8.25;7.40;;;33.80;90.60;;;;;;4991623;28;20196;-73
2022/06/29 11:56:45;;;;;;;10.15;8.00;;;33.90;90.50;;;;;;4990270;28;20227;-74
2022/06/29 11:59:15;;;;;;;8.73;7.88;;;34.00;90.60;;;;;;5005570;28;20199;-75
2022/06/29 12:01:52;;;;;;;7.88;7.07;;;34.10;90.50;;;;;;5007962;28;20200;-75
2022/06/29 12:04:29;;;;;;;7.75;6.97;;;34.20;89.10;;;;;;5031854;28;20271;-73
2022/06/29 12:07:04;;;;;;;11.00;5.95;;;34.30;87.60;;;;;;5073791;28;20217;-74
2022/06/29 12:09:31;;;;;;;7.70;6.90;;;34.40;87.90;;;;;;4990855;28;20242;-73
2022/06/29 12:11:58;;;;;;;9.93;7.70;;;34.50;87.10;;;;;;4985573;28;20287;-72
2022/06/29 12:14:25;;;;;;;7.63;6.82;;;34.50;86.70;;;;;;4979497;28;20204;-72
2022/06/29 12:16:52;;;;;;;8.23;7.20;;;34.40;87.00;;;;;;4980539;28;20227;-70
2022/06/29 12:19:19;;;;;;;7.88;7.07;;;34.40;88.30;;;;;;4983944;28;20203;-72
2022/06/29 12:21:48;;;;;;;8.30;7.50;;;34.50;87.60;;;;;;4980650;28;20590;-69
2022/06/29 12:24:15;;;;;;;26.05;8.77;;;34.60;86.90;;;;;;5021516;28;20196;-71
2022/06/29 12:26:42;;;;;;;13.70;10.10;;;34.50;86.20;;;;;;5016010;28;20298;-69
2022/06/29 12:29:09;;;;;;;8.00;7.20;;;34.40;86.00;;;;;;4989527;28;20298;-71
2022/06/29 12:31:37;;;;;;;9.02;7.45;;;34.30;86.20;;;;;;5032197;28;20712;-69
2022/06/29 12:34:04;;;;;;;11.10;7.13;;;34.30;86.40;;;;;;4995870;28;20302;-68
2022/06/29 12:36:31;;;;;;;8.80;7.65;;;34.20;86.80;;;;;;4986759;28;20278;-70
2022/06/29 12:38:59;;;;;;;7.50;6.80;;;34.10;86.10;;;;;;4971857;28;20311;-73
2022/06/29 12:41:26;;;;;;;54.75;11.80;;;33.80;85.90;;;;;;4992625;28;20245;-70
2022/06/29 12:43:54;;;;;;;12.38;7.07;;;33.40;86.40;;;;;;4990922;28;20218;-69
2022/06/29 12:46:20;;;;;;;17.70;8.45;;;33.10;86.60;;;;;;5000580;28;20563;-70
2022/06/29 12:48:47;;;;;;;17.13;7.40;;;32.90;87.10;;;;;;4989908;28;20242;-71
2022/06/29 12:51:14;;;;;;;12.75;8.50;;;32.70;87.60;;;;;;5013427;28;20196;-74
2022/06/29 12:53:41;;;;;;;16.85;8.63;;;32.50;91.70;;;;;;5002698;28;20199;-74
2022/06/29 12:56:09;;;;;;;12.30;8.75;;;32.20;93.00;;;;;;4986132;28;20216;-70
2022/06/29 12:58:36;;;;;;;18.77;9.32;;;31.90;93.70;;;;;;4983291;28;20662;-74
2022/06/29 13:01:03;;;;;;;12.82;9.50;;;31.60;94.80;;;;;;5018869;28;20621;-70
2022/06/29 13:03:30;;;;;;;14.25;8.65;;;31.30;96.00;;;;;;4981050;28;20203;-72
2022/06/29 13:05:57;;;;;;;11.65;7.32;;;30.90;96.40;;;;;;4989975;28;20249;-71